Strona główna
METAR-TAF:

METAR-TAF

Lotnisko :

Baza lotnicza

Solenzara, Francja

Szerokość geograficzna: 41-55N, Długość geograficzna: 009-24E, wysokość: 8 m

Aktualna obserwacja pogody

Raport powstał 17 minut temu, godzina 00:30 UTC
Wiatr 4 kt od północny zachód, zmienny między zachodnio-północny zachód i północ
Temperatura 11°C
Wilgotność 50%
Ciśnienie 1021 hPa
Widzialność 10 km lub więcej
Brak chmur poniżej 1500 m i brak chmur cumulonimbus

METAR: LFKS 050030Z AUTO 32004KT 290V350 CAVOK 11/01 Q1021

czas: 02:47 (00:47 UTC)

Prognoza

Raport powstał 16 godziny i 47 minut temu, godzina 08:00 UTC
Prognoza ważna od 03 godzina 09 UTC do 04 godzina 09 UTC
Wiatr 5 kt od wschód
Widzialność 10 km lub więcej
Przerywane chmury na wysokości 3000 ft

TAF: LFKS 030800Z 0309/0409 09005KT 9999 BKN030

Obserwacja i prognoza pogody dla ponad 4000 lotnisk (raport METAR i TAF).

Dostępne stacje oznaczono żółtymi i czerwonymi punktami na mapie.

Najedź kursorem aby zobaczyć nazwę stacji.

Kliknij aby zobaczyć obserwacje i prognozy pogody.

Aby zmienić mapę: kliknij na zielony przycisk z czarnym krzyżykiem, aby powiększyć; na zielony przycisk z myślnikiem, aby pomniejszyć; na zielone strzałki, aby przejść do map sąsiednich.


METAR-TAF: